sensor_id;sensor_type;location;lat;lon;timestamp;temperature;humidity
21815;DHT22;11069;48.988;8.450;2023-02-28T00:00:33;-1.20;99.90
21815;DHT22;11069;48.988;8.450;2023-02-28T00:02:59;-1.20;99.90
21815;DHT22;11069;48.988;8.450;2023-02-28T00:05:26;-1.20;99.90
21815;DHT22;11069;48.988;8.450;2023-02-28T00:07:52;-1.30;99.90
21815;DHT22;11069;48.988;8.450;2023-02-28T00:10:23;-1.30;99.90
21815;DHT22;11069;48.988;8.450;2023-02-28T00:12:50;-1.30;99.90
21815;DHT22;11069;48.988;8.450;2023-02-28T00:15:17;-1.30;99.90
21815;DHT22;11069;48.988;8.450;2023-02-28T00:17:43;-1.30;99.90
21815;DHT22;11069;48.988;8.450;2023-02-28T00:20:11;-1.30;99.90
21815;DHT22;11069;48.988;8.450;2023-02-28T00:22:39;-1.40;99.90
21815;DHT22;11069;48.988;8.450;2023-02-28T00:25:06;-1.30;99.90
21815;DHT22;11069;48.988;8.450;2023-02-28T00:27:33;-1.30;99.90
21815;DHT22;11069;48.988;8.450;2023-02-28T00:29:58;-1.30;99.90
21815;DHT22;11069;48.988;8.450;2023-02-28T00:32:24;-1.40;99.90
21815;DHT22;11069;48.988;8.450;2023-02-28T00:34:49;-1.30;99.90
21815;DHT22;11069;48.988;8.450;2023-02-28T00:37:15;-1.30;99.90
21815;DHT22;11069;48.988;8.450;2023-02-28T00:39:41;-1.40;99.90
21815;DHT22;11069;48.988;8.450;2023-02-28T00:42:07;-1.40;99.90
21815;DHT22;11069;48.988;8.450;2023-02-28T00:44:33;-1.30;99.90
21815;DHT22;11069;48.988;8.450;2023-02-28T00:46:59;-1.30;99.90
21815;DHT22;11069;48.988;8.450;2023-02-28T00:49:26;-1.30;99.90
21815;DHT22;11069;48.988;8.450;2023-02-28T00:51:51;-1.30;99.90
21815;DHT22;11069;48.988;8.450;2023-02-28T00:54:18;-1.30;99.90
21815;DHT22;11069;48.988;8.450;2023-02-28T00:56:43;-1.40;99.90
21815;DHT22;11069;48.988;8.450;2023-02-28T00:59:11;-1.30;99.90
21815;DHT22;11069;48.988;8.450;2023-02-28T01:01:37;-1.40;99.90
21815;DHT22;11069;48.988;8.450;2023-02-28T01:04:03;-1.40;99.90
21815;DHT22;11069;48.988;8.450;2023-02-28T01:06:30;-1.30;99.90
21815;DHT22;11069;48.988;8.450;2023-02-28T01:08:55;-1.30;99.90
21815;DHT22;11069;48.988;8.450;2023-02-28T01:11:21;-1.40;99.90
21815;DHT22;11069;48.988;8.450;2023-02-28T01:13:46;-1.40;99.90
21815;DHT22;11069;48.988;8.450;2023-02-28T01:16:12;-1.40;99.90
21815;DHT22;11069;48.988;8.450;2023-02-28T01:18:38;-1.40;99.90
21815;DHT22;11069;48.988;8.450;2023-02-28T01:21:12;-1.40;99.90
21815;DHT22;11069;48.988;8.450;2023-02-28T01:23:39;-1.40;99.90
21815;DHT22;11069;48.988;8.450;2023-02-28T01:26:17;-1.40;99.90
21815;DHT22;11069;48.988;8.450;2023-02-28T01:28:43;-1.50;99.90
21815;DHT22;11069;48.988;8.450;2023-02-28T01:31:09;-1.50;99.90
21815;DHT22;11069;48.988;8.450;2023-02-28T01:33:35;-1.50;99.90
21815;DHT22;11069;48.988;8.450;2023-02-28T01:36:06;-1.50;99.90
21815;DHT22;11069;48.988;8.450;2023-02-28T01:38:33;-1.40;99.90
21815;DHT22;11069;48.988;8.450;2023-02-28T01:40:59;-1.40;99.90
21815;DHT22;11069;48.988;8.450;2023-02-28T01:43:26;-1.50;99.90
21815;DHT22;11069;48.988;8.450;2023-02-28T01:45:54;-1.50;99.90
21815;DHT22;11069;48.988;8.450;2023-02-28T01:48:31;-1.60;99.90
21815;DHT22;11069;48.988;8.450;2023-02-28T01:51:00;-1.60;99.90
21815;DHT22;11069;48.988;8.450;2023-02-28T01:53:35;-1.60;99.90
21815;DHT22;11069;48.988;8.450;2023-02-28T01:56:06;-1.60;99.90
21815;DHT22;11069;48.988;8.450;2023-02-28T01:58:32;-1.60;99.90
21815;DHT22;11069;48.988;8.450;2023-02-28T02:00:58;-1.60;99.90
21815;DHT22;11069;48.988;8.450;2023-02-28T02:03:24;-1.60;99.90
21815;DHT22;11069;48.988;8.450;2023-02-28T02:05:50;-1.70;99.90
21815;DHT22;11069;48.988;8.450;2023-02-28T02:08:22;-1.60;99.90
21815;DHT22;11069;48.988;8.450;2023-02-28T02:10:48;-1.70;99.90
21815;DHT22;11069;48.988;8.450;2023-02-28T02:13:34;-1.60;99.90
21815;DHT22;11069;48.988;8.450;2023-02-28T02:19:02;-1.70;99.90
21815;DHT22;11069;48.988;8.450;2023-02-28T02:22:02;-1.60;99.90
21815;DHT22;11069;48.988;8.450;2023-02-28T02:24:51;-1.70;99.90
21815;DHT22;11069;48.988;8.450;2023-02-28T02:35:57;-1.70;99.90
21815;DHT22;11069;48.988;8.450;2023-02-28T02:40:59;-1.80;99.90
21815;DHT22;11069;48.988;8.450;2023-02-28T02:43:34;-1.80;99.90
21815;DHT22;11069;48.988;8.450;2023-02-28T02:46:19;-1.70;99.90
21815;DHT22;11069;48.988;8.450;2023-02-28T02:48:46;-1.70;99.90
21815;DHT22;11069;48.988;8.450;2023-02-28T02:51:15;-1.80;99.90
21815;DHT22;11069;48.988;8.450;2023-02-28T02:53:52;-1.80;99.90
21815;DHT22;11069;48.988;8.450;2023-02-28T02:56:20;-1.90;99.90
21815;DHT22;11069;48.988;8.450;2023-02-28T02:58:49;-1.90;99.90
21815;DHT22;11069;48.988;8.450;2023-02-28T03:01:18;-2.00;99.90
21815;DHT22;11069;48.988;8.450;2023-02-28T03:03:57;-2.00;99.90
21815;DHT22;11069;48.988;8.450;2023-02-28T03:06:24;-2.00;99.90
21815;DHT22;11069;48.988;8.450;2023-02-28T03:08:50;-2.00;99.90
21815;DHT22;11069;48.988;8.450;2023-02-28T03:11:15;-1.80;99.90
21815;DHT22;11069;48.988;8.450;2023-02-28T03:27:26;-1.30;99.90
21815;DHT22;11069;48.988;8.450;2023-02-28T03:30:22;-1.30;99.90
21815;DHT22;11069;48.988;8.450;2023-02-28T03:35:25;-0.90;99.90
21815;DHT22;11069;48.988;8.450;2023-02-28T03:37:58;-0.90;99.90
21815;DHT22;11069;48.988;8.450;2023-02-28T03:40:30;-0.80;99.90
21815;DHT22;11069;48.988;8.450;2023-02-28T03:43:00;-0.70;99.90
21815;DHT22;11069;48.988;8.450;2023-02-28T03:45:33;-0.70;99.90
21815;DHT22;11069;48.988;8.450;2023-02-28T03:50:38;-0.60;99.90
21815;DHT22;11069;48.988;8.450;2023-02-28T03:53:44;-0.50;99.90
21815;DHT22;11069;48.988;8.450;2023-02-28T03:56:21;-0.50;99.90
21815;DHT22;11069;48.988;8.450;2023-02-28T04:01:21;-0.40;99.90
21815;DHT22;11069;48.988;8.450;2023-02-28T04:03:49;-0.40;99.90
21815;DHT22;11069;48.988;8.450;2023-02-28T04:06:20;-0.30;99.90
21815;DHT22;11069;48.988;8.450;2023-02-28T04:08:46;-0.30;99.90
21815;DHT22;11069;48.988;8.450;2023-02-28T04:13:38;-0.30;99.90
21815;DHT22;11069;48.988;8.450;2023-02-28T04:16:07;-0.30;99.90
21815;DHT22;11069;48.988;8.450;2023-02-28T04:18:38;-0.30;99.90
21815;DHT22;11069;48.988;8.450;2023-02-28T04:21:05;-0.30;99.90
21815;DHT22;11069;48.988;8.450;2023-02-28T04:23:31;-0.20;99.90
21815;DHT22;11069;48.988;8.450;2023-02-28T04:25:57;-0.20;99.90
21815;DHT22;11069;48.988;8.450;2023-02-28T04:28:22;-0.30;99.90
21815;DHT22;11069;48.988;8.450;2023-02-28T04:31:01;-0.30;99.90
21815;DHT22;11069;48.988;8.450;2023-02-28T04:33:27;-0.30;99.90
21815;DHT22;11069;48.988;8.450;2023-02-28T04:36:04;-0.20;99.90
21815;DHT22;11069;48.988;8.450;2023-02-28T04:38:33;-0.30;99.90
21815;DHT22;11069;48.988;8.450;2023-02-28T04:41:00;-0.30;99.90
21815;DHT22;11069;48.988;8.450;2023-02-28T04:43:27;-0.40;99.90
21815;DHT22;11069;48.988;8.450;2023-02-28T04:45:53;-0.40;99.90
21815;DHT22;11069;48.988;8.450;2023-02-28T04:48:23;-0.40;99.90
21815;DHT22;11069;48.988;8.450;2023-02-28T04:50:48;-0.50;99.90
21815;DHT22;11069;48.988;8.450;2023-02-28T04:53:14;-0.50;99.90
21815;DHT22;11069;48.988;8.450;2023-02-28T04:55:40;-0.50;99.90
21815;DHT22;11069;48.988;8.450;2023-02-28T04:58:06;-0.50;99.90
21815;DHT22;11069;48.988;8.450;2023-02-28T05:00:31;-0.50;99.90
21815;DHT22;11069;48.988;8.450;2023-02-28T05:02:57;-0.50;99.90
21815;DHT22;11069;48.988;8.450;2023-02-28T05:05:22;-0.50;99.90
21815;DHT22;11069;48.988;8.450;2023-02-28T05:07:48;-0.50;99.90
21815;DHT22;11069;48.988;8.450;2023-02-28T05:10:14;-0.60;99.90
21815;DHT22;11069;48.988;8.450;2023-02-28T05:12:39;-0.60;99.90
21815;DHT22;11069;48.988;8.450;2023-02-28T05:15:05;-0.70;99.90
21815;DHT22;11069;48.988;8.450;2023-02-28T05:17:31;-0.70;99.90
21815;DHT22;11069;48.988;8.450;2023-02-28T05:19:57;-0.70;99.90
21815;DHT22;11069;48.988;8.450;2023-02-28T05:22:22;-0.70;99.90
21815;DHT22;11069;48.988;8.450;2023-02-28T05:24:48;-0.80;99.90
21815;DHT22;11069;48.988;8.450;2023-02-28T05:27:14;-0.80;99.90
21815;DHT22;11069;48.988;8.450;2023-02-28T05:29:39;-0.80;99.90
21815;DHT22;11069;48.988;8.450;2023-02-28T05:32:11;-0.90;99.90
21815;DHT22;11069;48.988;8.450;2023-02-28T05:34:40;-0.90;99.90
21815;DHT22;11069;48.988;8.450;2023-02-28T05:37:10;-0.90;99.90
21815;DHT22;11069;48.988;8.450;2023-02-28T05:39:36;-0.80;99.90
21815;DHT22;11069;48.988;8.450;2023-02-28T05:42:02;-0.90;99.90
21815;DHT22;11069;48.988;8.450;2023-02-28T05:44:28;-0.80;99.90
21815;DHT22;11069;48.988;8.450;2023-02-28T05:46:53;-0.80;99.90
21815;DHT22;11069;48.988;8.450;2023-02-28T05:49:19;-0.80;99.90
21815;DHT22;11069;48.988;8.450;2023-02-28T05:51:44;-0.80;99.90
21815;DHT22;11069;48.988;8.450;2023-02-28T05:54:10;-0.80;99.90
21815;DHT22;11069;48.988;8.450;2023-02-28T05:56:36;-0.70;99.90
21815;DHT22;11069;48.988;8.450;2023-02-28T05:59:04;-0.70;99.90
21815;DHT22;11069;48.988;8.450;2023-02-28T06:01:35;-0.70;99.90
21815;DHT22;11069;48.988;8.450;2023-02-28T06:04:03;-0.60;99.90
21815;DHT22;11069;48.988;8.450;2023-02-28T06:06:29;-0.60;99.90
21815;DHT22;11069;48.988;8.450;2023-02-28T06:08:55;-0.50;99.90
21815;DHT22;11069;48.988;8.450;2023-02-28T06:11:21;-0.50;99.90
21815;DHT22;11069;48.988;8.450;2023-02-28T06:13:56;-0.50;99.90
21815;DHT22;11069;48.988;8.450;2023-02-28T06:16:23;-0.50;99.90
21815;DHT22;11069;48.988;8.450;2023-02-28T06:18:49;-0.40;99.90
21815;DHT22;11069;48.988;8.450;2023-02-28T06:21:17;-0.40;99.90
21815;DHT22;11069;48.988;8.450;2023-02-28T06:23:43;-0.40;99.90
21815;DHT22;11069;48.988;8.450;2023-02-28T06:26:09;-0.30;99.90
21815;DHT22;11069;48.988;8.450;2023-02-28T06:28:35;-0.30;99.90
21815;DHT22;11069;48.988;8.450;2023-02-28T06:31:07;-0.20;99.90
21815;DHT22;11069;48.988;8.450;2023-02-28T06:33:33;-0.30;99.90
21815;DHT22;11069;48.988;8.450;2023-02-28T06:35:59;-0.20;99.90
21815;DHT22;11069;48.988;8.450;2023-02-28T06:38:24;-0.30;99.90
21815;DHT22;11069;48.988;8.450;2023-02-28T06:40:58;-0.20;99.90
21815;DHT22;11069;48.988;8.450;2023-02-28T06:43:24;-0.20;99.90
21815;DHT22;11069;48.988;8.450;2023-02-28T06:45:50;-0.20;99.90
21815;DHT22;11069;48.988;8.450;2023-02-28T06:48:16;-0.10;99.90
21815;DHT22;11069;48.988;8.450;2023-02-28T06:50:41;0.00;99.90
21815;DHT22;11069;48.988;8.450;2023-02-28T06:53:07;0.00;99.90
21815;DHT22;11069;48.988;8.450;2023-02-28T06:55:32;0.00;99.90
21815;DHT22;11069;48.988;8.450;2023-02-28T06:57:58;0.00;99.90
21815;DHT22;11069;48.988;8.450;2023-02-28T07:00:24;0.10;99.90
21815;DHT22;11069;48.988;8.450;2023-02-28T07:02:50;0.10;99.90
21815;DHT22;11069;48.988;8.450;2023-02-28T07:05:16;0.20;99.90
21815;DHT22;11069;48.988;8.450;2023-02-28T07:07:42;0.30;99.90
21815;DHT22;11069;48.988;8.450;2023-02-28T07:10:11;0.30;99.90
21815;DHT22;11069;48.988;8.450;2023-02-28T07:12:37;0.20;99.90
21815;DHT22;11069;48.988;8.450;2023-02-28T07:15:04;0.30;99.90
21815;DHT22;11069;48.988;8.450;2023-02-28T07:17:30;0.20;99.90
21815;DHT22;11069;48.988;8.450;2023-02-28T07:19:55;0.30;99.90
21815;DHT22;11069;48.988;8.450;2023-02-28T07:22:24;0.20;99.90
21815;DHT22;11069;48.988;8.450;2023-02-28T07:24:50;0.30;99.90
21815;DHT22;11069;48.988;8.450;2023-02-28T07:27:15;0.30;99.90
21815;DHT22;11069;48.988;8.450;2023-02-28T07:29:49;0.40;99.90
21815;DHT22;11069;48.988;8.450;2023-02-28T07:32:15;0.40;99.90
21815;DHT22;11069;48.988;8.450;2023-02-28T07:34:41;0.40;99.90
21815;DHT22;11069;48.988;8.450;2023-02-28T07:37:06;0.40;99.90
21815;DHT22;11069;48.988;8.450;2023-02-28T07:39:32;0.50;99.90
21815;DHT22;11069;48.988;8.450;2023-02-28T07:41:57;0.50;99.90
21815;DHT22;11069;48.988;8.450;2023-02-28T07:44:25;0.50;99.90
21815;DHT22;11069;48.988;8.450;2023-02-28T07:46:50;0.60;99.90
21815;DHT22;11069;48.988;8.450;2023-02-28T07:49:16;0.50;99.90
21815;DHT22;11069;48.988;8.450;2023-02-28T07:51:42;0.60;99.90
21815;DHT22;11069;48.988;8.450;2023-02-28T07:54:07;0.60;99.90
21815;DHT22;11069;48.988;8.450;2023-02-28T07:56:33;0.60;99.90
21815;DHT22;11069;48.988;8.450;2023-02-28T07:58:58;0.70;99.90
21815;DHT22;11069;48.988;8.450;2023-02-28T08:01:24;0.70;99.90
21815;DHT22;11069;48.988;8.450;2023-02-28T08:03:50;0.70;99.90
21815;DHT22;11069;48.988;8.450;2023-02-28T08:06:19;0.70;99.90
21815;DHT22;11069;48.988;8.450;2023-02-28T08:08:46;0.80;99.90
21815;DHT22;11069;48.988;8.450;2023-02-28T08:11:12;0.90;99.90
21815;DHT22;11069;48.988;8.450;2023-02-28T08:13:37;0.80;99.90
21815;DHT22;11069;48.988;8.450;2023-02-28T08:16:03;0.80;99.90
21815;DHT22;11069;48.988;8.450;2023-02-28T08:18:28;0.80;99.90
21815;DHT22;11069;48.988;8.450;2023-02-28T08:20:54;0.90;99.90
21815;DHT22;11069;48.988;8.450;2023-02-28T08:23:20;0.80;99.90
21815;DHT22;11069;48.988;8.450;2023-02-28T08:25:53;0.90;99.90
21815;DHT22;11069;48.988;8.450;2023-02-28T08:28:18;1.00;99.90
21815;DHT22;11069;48.988;8.450;2023-02-28T08:30:44;1.10;99.90
21815;DHT22;11069;48.988;8.450;2023-02-28T08:33:09;1.10;99.90
21815;DHT22;11069;48.988;8.450;2023-02-28T08:35:36;1.10;99.90
21815;DHT22;11069;48.988;8.450;2023-02-28T08:38:02;1.20;99.90
21815;DHT22;11069;48.988;8.450;2023-02-28T08:40:28;1.30;99.90
21815;DHT22;11069;48.988;8.450;2023-02-28T08:42:53;1.30;99.90
21815;DHT22;11069;48.988;8.450;2023-02-28T08:45:19;1.40;99.90
21815;DHT22;11069;48.988;8.450;2023-02-28T08:47:44;1.30;99.90
21815;DHT22;11069;48.988;8.450;2023-02-28T08:50:10;1.40;99.90
21815;DHT22;11069;48.988;8.450;2023-02-28T08:52:36;1.30;99.90
21815;DHT22;11069;48.988;8.450;2023-02-28T08:55:01;1.40;99.90
21815;DHT22;11069;48.988;8.450;2023-02-28T08:57:27;1.50;99.90
21815;DHT22;11069;48.988;8.450;2023-02-28T08:59:52;1.60;99.90
21815;DHT22;11069;48.988;8.450;2023-02-28T09:02:18;1.60;99.90
21815;DHT22;11069;48.988;8.450;2023-02-28T09:04:44;1.50;99.90
21815;DHT22;11069;48.988;8.450;2023-02-28T09:07:11;1.70;99.90
21815;DHT22;11069;48.988;8.450;2023-02-28T09:09:37;1.90;99.90
21815;DHT22;11069;48.988;8.450;2023-02-28T09:12:03;2.10;99.90
21815;DHT22;11069;48.988;8.450;2023-02-28T09:14:29;2.20;99.90
21815;DHT22;11069;48.988;8.450;2023-02-28T09:16:54;2.30;99.90
21815;DHT22;11069;48.988;8.450;2023-02-28T09:19:20;2.30;99.90
21815;DHT22;11069;48.988;8.450;2023-02-28T09:21:45;2.60;99.90
21815;DHT22;11069;48.988;8.450;2023-02-28T09:24:11;2.70;99.90
21815;DHT22;11069;48.988;8.450;2023-02-28T09:26:39;2.80;99.90
21815;DHT22;11069;48.988;8.450;2023-02-28T09:29:05;3.00;99.90
21815;DHT22;11069;48.988;8.450;2023-02-28T09:31:32;3.40;99.90
21815;DHT22;11069;48.988;8.450;2023-02-28T09:33:58;3.70;99.90
21815;DHT22;11069;48.988;8.450;2023-02-28T09:36:25;3.70;99.90
21815;DHT22;11069;48.988;8.450;2023-02-28T09:38:51;3.40;99.90
21815;DHT22;11069;48.988;8.450;2023-02-28T09:41:25;3.20;99.90
21815;DHT22;11069;48.988;8.450;2023-02-28T09:43:56;3.20;99.90
21815;DHT22;11069;48.988;8.450;2023-02-28T09:48:59;3.30;99.90
21815;DHT22;11069;48.988;8.450;2023-02-28T09:54:00;3.50;99.90
21815;DHT22;11069;48.988;8.450;2023-02-28T09:56:32;3.40;99.90
21815;DHT22;11069;48.988;8.450;2023-02-28T09:59:00;3.30;99.90
21815;DHT22;11069;48.988;8.450;2023-02-28T10:06:34;3.50;99.90
21815;DHT22;11069;48.988;8.450;2023-02-28T10:09:29;3.60;99.90
21815;DHT22;11069;48.988;8.450;2023-02-28T10:12:02;3.70;99.90
21815;DHT22;11069;48.988;8.450;2023-02-28T10:14:31;3.50;99.90
21815;DHT22;11069;48.988;8.450;2023-02-28T10:17:11;3.40;99.90
21815;DHT22;11069;48.988;8.450;2023-02-28T10:19:46;3.20;99.90
21815;DHT22;11069;48.988;8.450;2023-02-28T10:22:20;3.30;99.90
21815;DHT22;11069;48.988;8.450;2023-02-28T10:24:50;3.20;99.90
21815;DHT22;11069;48.988;8.450;2023-02-28T10:27:21;3.20;99.90
21815;DHT22;11069;48.988;8.450;2023-02-28T10:29:50;3.20;99.90
21815;DHT22;11069;48.988;8.450;2023-02-28T10:32:18;3.40;99.90
21815;DHT22;11069;48.988;8.450;2023-02-28T10:34:50;3.50;99.90
21815;DHT22;11069;48.988;8.450;2023-02-28T10:37:16;3.40;99.90
21815;DHT22;11069;48.988;8.450;2023-02-28T10:39:44;3.40;99.90
21815;DHT22;11069;48.988;8.450;2023-02-28T10:47:30;3.00;99.90
21815;DHT22;11069;48.988;8.450;2023-02-28T10:49:56;3.20;99.90
21815;DHT22;11069;48.988;8.450;2023-02-28T10:52:37;3.30;99.90
21815;DHT22;11069;48.988;8.450;2023-02-28T10:55:24;3.40;99.90
21815;DHT22;11069;48.988;8.450;2023-02-28T10:57:52;3.30;99.90
21815;DHT22;11069;48.988;8.450;2023-02-28T11:00:23;3.40;99.90
21815;DHT22;11069;48.988;8.450;2023-02-28T11:02:50;3.40;99.90
21815;DHT22;11069;48.988;8.450;2023-02-28T11:05:29;3.60;99.90
21815;DHT22;11069;48.988;8.450;2023-02-28T11:08:15;3.50;99.90
21815;DHT22;11069;48.988;8.450;2023-02-28T11:10:46;3.50;99.90
21815;DHT22;11069;48.988;8.450;2023-02-28T11:13:20;3.60;99.90
21815;DHT22;11069;48.988;8.450;2023-02-28T11:15:53;3.80;99.90
21815;DHT22;11069;48.988;8.450;2023-02-28T11:21:04;4.00;99.90
21815;DHT22;11069;48.988;8.450;2023-02-28T11:23:33;3.90;99.50
21815;DHT22;11069;48.988;8.450;2023-02-28T11:26:01;3.90;99.50
21815;DHT22;11069;48.988;8.450;2023-02-28T11:28:33;4.00;99.90
21815;DHT22;11069;48.988;8.450;2023-02-28T11:33:55;4.30;99.90
21815;DHT22;11069;48.988;8.450;2023-02-28T11:36:30;4.50;99.90
21815;DHT22;11069;48.988;8.450;2023-02-28T11:38:59;4.90;99.90
21815;DHT22;11069;48.988;8.450;2023-02-28T11:47:41;4.40;97.70
21815;DHT22;11069;48.988;8.450;2023-02-28T11:55:52;4.60;97.10
21815;DHT22;11069;48.988;8.450;2023-02-28T12:01:16;5.40;96.00
21815;DHT22;11069;48.988;8.450;2023-02-28T12:09:20;5.60;95.80
21815;DHT22;11069;48.988;8.450;2023-02-28T12:15:13;5.50;96.10
21815;DHT22;11069;48.988;8.450;2023-02-28T12:28:16;5.70;95.00
21815;DHT22;11069;48.988;8.450;2023-02-28T12:31:01;5.80;95.60
21815;DHT22;11069;48.988;8.450;2023-02-28T12:33:36;6.40;94.90
21815;DHT22;11069;48.988;8.450;2023-02-28T12:36:08;6.50;93.90
21815;DHT22;11069;48.988;8.450;2023-02-28T12:38:43;7.70;93.30
21815;DHT22;11069;48.988;8.450;2023-02-28T12:41:18;7.80;92.20
21815;DHT22;11069;48.988;8.450;2023-02-28T12:43:49;8.60;91.00
21815;DHT22;11069;48.988;8.450;2023-02-28T12:46:21;8.10;91.10
21815;DHT22;11069;48.988;8.450;2023-02-28T12:49:00;8.30;92.10
21815;DHT22;11069;48.988;8.450;2023-02-28T12:51:28;8.60;91.10
21815;DHT22;11069;48.988;8.450;2023-02-28T12:56:30;8.20;90.20
21815;DHT22;11069;48.988;8.450;2023-02-28T13:04:42;7.20;92.50
21815;DHT22;11069;48.988;8.450;2023-02-28T13:07:42;8.10;92.00
21815;DHT22;11069;48.988;8.450;2023-02-28T13:10:10;8.20;89.30
21815;DHT22;11069;48.988;8.450;2023-02-28T13:12:36;8.60;90.70
21815;DHT22;11069;48.988;8.450;2023-02-28T13:15:26;8.90;86.50
21815;DHT22;11069;48.988;8.450;2023-02-28T13:17:53;8.30;90.00
21815;DHT22;11069;48.988;8.450;2023-02-28T13:20:35;8.10;90.90
21815;DHT22;11069;48.988;8.450;2023-02-28T13:23:01;7.90;92.20
21815;DHT22;11069;48.988;8.450;2023-02-28T13:28:00;7.50;91.40
21815;DHT22;11069;48.988;8.450;2023-02-28T13:34:04;7.30;92.30
21815;DHT22;11069;48.988;8.450;2023-02-28T13:36:24;7.00;91.80
21815;DHT22;11069;48.988;8.450;2023-02-28T13:39:11;7.30;91.90
21815;DHT22;11069;48.988;8.450;2023-02-28T13:41:47;7.70;91.30
21815;DHT22;11069;48.988;8.450;2023-02-28T13:44:20;7.20;91.60
21815;DHT22;11069;48.988;8.450;2023-02-28T13:52:17;6.80;92.40
21815;DHT22;11069;48.988;8.450;2023-02-28T13:55:33;6.80;92.70
21815;DHT22;11069;48.988;8.450;2023-02-28T14:04:34;7.30;92.80
21815;DHT22;11069;48.988;8.450;2023-02-28T14:07:03;7.00;92.90
21815;DHT22;11069;48.988;8.450;2023-02-28T14:09:37;7.00;93.00
21815;DHT22;11069;48.988;8.450;2023-02-28T14:18:02;6.70;92.80
21815;DHT22;11069;48.988;8.450;2023-02-28T14:20:31;7.00;91.90
21815;DHT22;11069;48.988;8.450;2023-02-28T14:25:55;7.10;92.40
21815;DHT22;11069;48.988;8.450;2023-02-28T14:28:49;7.20;92.60
21815;DHT22;11069;48.988;8.450;2023-02-28T14:31:34;7.60;92.30
21815;DHT22;11069;48.988;8.450;2023-02-28T14:36:40;7.70;91.10
21815;DHT22;11069;48.988;8.450;2023-02-28T14:39:15;7.50;91.10
21815;DHT22;11069;48.988;8.450;2023-02-28T14:41:43;7.70;91.80
21815;DHT22;11069;48.988;8.450;2023-02-28T14:44:22;8.10;90.50
21815;DHT22;11069;48.988;8.450;2023-02-28T14:46:56;8.00;90.70
21815;DHT22;11069;48.988;8.450;2023-02-28T14:54:31;7.80;91.00
21815;DHT22;11069;48.988;8.450;2023-02-28T14:56:57;8.10;91.20
21815;DHT22;11069;48.988;8.450;2023-02-28T15:01:49;7.20;91.50
21815;DHT22;11069;48.988;8.450;2023-02-28T15:04:24;7.10;92.20
21815;DHT22;11069;48.988;8.450;2023-02-28T15:07:13;6.80;92.50
21815;DHT22;11069;48.988;8.450;2023-02-28T15:09:39;6.60;92.70
21815;DHT22;11069;48.988;8.450;2023-02-28T15:12:05;6.50;93.20
21815;DHT22;11069;48.988;8.450;2023-02-28T15:14:31;6.40;93.30
21815;DHT22;11069;48.988;8.450;2023-02-28T15:17:00;6.60;92.90
21815;DHT22;11069;48.988;8.450;2023-02-28T15:19:32;7.00;93.60
21815;DHT22;11069;48.988;8.450;2023-02-28T15:22:06;7.20;92.50
21815;DHT22;11069;48.988;8.450;2023-02-28T15:24:42;6.90;92.70
21815;DHT22;11069;48.988;8.450;2023-02-28T15:27:20;6.60;93.20
21815;DHT22;11069;48.988;8.450;2023-02-28T15:29:55;6.60;93.40
21815;DHT22;11069;48.988;8.450;2023-02-28T15:32:28;6.80;93.10
21815;DHT22;11069;48.988;8.450;2023-02-28T15:34:55;6.80;92.90
21815;DHT22;11069;48.988;8.450;2023-02-28T15:37:33;6.80;92.50
21815;DHT22;11069;48.988;8.450;2023-02-28T15:40:10;6.60;92.70
21815;DHT22;11069;48.988;8.450;2023-02-28T15:42:36;6.40;93.50
21815;DHT22;11069;48.988;8.450;2023-02-28T15:45:02;6.30;93.60
21815;DHT22;11069;48.988;8.450;2023-02-28T15:47:29;6.30;93.90
21815;DHT22;11069;48.988;8.450;2023-02-28T15:50:00;6.20;93.40
21815;DHT22;11069;48.988;8.450;2023-02-28T15:52:43;6.10;93.30
21815;DHT22;11069;48.988;8.450;2023-02-28T15:55:28;6.10;93.30
21815;DHT22;11069;48.988;8.450;2023-02-28T15:58:00;6.10;93.50
21815;DHT22;11069;48.988;8.450;2023-02-28T16:00:28;6.00;93.90
21815;DHT22;11069;48.988;8.450;2023-02-28T16:02:54;5.90;94.00
21815;DHT22;11069;48.988;8.450;2023-02-28T16:05:21;5.90;94.40
21815;DHT22;11069;48.988;8.450;2023-02-28T16:07:57;5.80;94.20
21815;DHT22;11069;48.988;8.450;2023-02-28T16:10:24;5.70;94.20
21815;DHT22;11069;48.988;8.450;2023-02-28T16:12:54;5.80;95.00
21815;DHT22;11069;48.988;8.450;2023-02-28T16:15:26;6.00;94.00
21815;DHT22;11069;48.988;8.450;2023-02-28T16:17:53;6.00;94.00
21815;DHT22;11069;48.988;8.450;2023-02-28T16:20:23;5.90;94.00
21815;DHT22;11069;48.988;8.450;2023-02-28T16:22:49;5.70;94.10
21815;DHT22;11069;48.988;8.450;2023-02-28T16:25:17;5.60;94.60
21815;DHT22;11069;48.988;8.450;2023-02-28T16:27:45;5.50;94.70
21815;DHT22;11069;48.988;8.450;2023-02-28T16:30:23;5.50;94.90
21815;DHT22;11069;48.988;8.450;2023-02-28T16:32:50;5.30;95.10
21815;DHT22;11069;48.988;8.450;2023-02-28T16:35:16;5.30;95.50
21815;DHT22;11069;48.988;8.450;2023-02-28T16:37:43;5.10;95.30
21815;DHT22;11069;48.988;8.450;2023-02-28T16:40:17;5.10;95.60
21815;DHT22;11069;48.988;8.450;2023-02-28T16:42:45;5.00;95.60
21815;DHT22;11069;48.988;8.450;2023-02-28T16:45:20;4.90;95.60
21815;DHT22;11069;48.988;8.450;2023-02-28T16:47:46;4.80;96.10
21815;DHT22;11069;48.988;8.450;2023-02-28T16:50:20;4.70;96.10
21815;DHT22;11069;48.988;8.450;2023-02-28T16:52:46;4.60;96.30
21815;DHT22;11069;48.988;8.450;2023-02-28T16:55:12;4.60;96.40
21815;DHT22;11069;48.988;8.450;2023-02-28T16:57:38;4.50;96.50
21815;DHT22;11069;48.988;8.450;2023-02-28T17:00:06;4.40;96.50
21815;DHT22;11069;48.988;8.450;2023-02-28T17:02:33;4.30;96.60
21815;DHT22;11069;48.988;8.450;2023-02-28T17:04:59;4.20;97.10
21815;DHT22;11069;48.988;8.450;2023-02-28T17:07:25;4.10;97.40
21815;DHT22;11069;48.988;8.450;2023-02-28T17:09:51;4.00;97.60
21815;DHT22;11069;48.988;8.450;2023-02-28T17:12:16;3.90;97.80
21815;DHT22;11069;48.988;8.450;2023-02-28T17:14:42;3.80;97.90
21815;DHT22;11069;48.988;8.450;2023-02-28T17:17:14;3.80;97.90
21815;DHT22;11069;48.988;8.450;2023-02-28T17:19:41;3.70;98.20
21815;DHT22;11069;48.988;8.450;2023-02-28T17:22:09;3.60;98.40
21815;DHT22;11069;48.988;8.450;2023-02-28T17:24:35;3.50;98.60
21815;DHT22;11069;48.988;8.450;2023-02-28T17:27:01;3.40;98.80
21815;DHT22;11069;48.988;8.450;2023-02-28T17:29:27;3.40;99.10
21815;DHT22;11069;48.988;8.450;2023-02-28T17:31:53;3.30;99.00
21815;DHT22;11069;48.988;8.450;2023-02-28T17:34:19;3.30;99.20
21815;DHT22;11069;48.988;8.450;2023-02-28T17:36:49;3.30;99.40
21815;DHT22;11069;48.988;8.450;2023-02-28T17:39:16;3.20;99.40
21815;DHT22;11069;48.988;8.450;2023-02-28T17:41:50;3.20;99.60
21815;DHT22;11069;48.988;8.450;2023-02-28T17:44:17;3.20;99.60
21815;DHT22;11069;48.988;8.450;2023-02-28T17:46:43;3.10;99.80
21815;DHT22;11069;48.988;8.450;2023-02-28T17:49:10;3.10;99.90
21815;DHT22;11069;48.988;8.450;2023-02-28T17:51:35;3.00;99.90
21815;DHT22;11069;48.988;8.450;2023-02-28T17:54:01;3.00;99.90
21815;DHT22;11069;48.988;8.450;2023-02-28T17:56:27;2.90;99.90
21815;DHT22;11069;48.988;8.450;2023-02-28T17:58:54;2.90;99.90
21815;DHT22;11069;48.988;8.450;2023-02-28T18:01:21;2.80;99.90
21815;DHT22;11069;48.988;8.450;2023-02-28T18:03:47;2.80;99.90
21815;DHT22;11069;48.988;8.450;2023-02-28T18:06:16;2.70;99.90
21815;DHT22;11069;48.988;8.450;2023-02-28T18:08:44;2.60;99.90
21815;DHT22;11069;48.988;8.450;2023-02-28T18:11:10;2.60;99.90